Time;durP1;ratioP1;P1;durP2;ratioP2;P2;SDS_P1;SDS_P2;PMS_P1;PMS_P2;Temp;Humidity;BMP_temperature;BMP_pressure;BME280_temperature;BME280_humidity;BME280_pressure;Samples;Min_cycle;Max_cycle;Signal;HPM_P1;HPM_P2
2024/03/03 00:01:12;;;;;;;10.73;6.10;;;;;;;6.70;100.00;99211.78;5079457;28;20055;-71
2024/03/03 00:03:40;;;;;;;10.77;5.80;;;;;;;6.37;100.00;99218.88;5056258;28;20051;-70
2024/03/03 00:06:07;;;;;;;12.95;6.32;;;;;;;6.74;100.00;99216.28;5066813;28;20048;-72
2024/03/03 00:08:35;;;;;;;12.20;8.00;;;;;;;6.78;100.00;99211.75;5050583;28;20052;-71
2024/03/03 00:11:03;;;;;;;13.48;8.10;;;;;;;7.02;100.00;99216.69;5050411;28;20087;-71
2024/03/03 00:13:31;;;;;;;13.95;9.32;;;;;;;7.23;100.00;99214.88;5048776;28;20558;-71
2024/03/03 00:15:59;;;;;;;16.35;11.60;;;;;;;7.07;100.00;99238.44;5067170;28;20056;-70
2024/03/03 00:18:27;;;;;;;16.80;12.68;;;;;;;7.07;100.00;99235.69;5067970;28;20052;-70
2024/03/03 00:20:54;;;;;;;17.58;13.32;;;;;;;7.15;100.00;99243.06;5063680;28;20048;-69
2024/03/03 00:23:22;;;;;;;19.25;13.48;;;;;;;7.25;100.00;99250.13;5066177;28;20048;-70
2024/03/03 00:25:49;;;;;;;19.42;12.98;;;;;;;7.28;100.00;99244.00;5067919;28;20068;-71
2024/03/03 00:28:17;;;;;;;16.30;12.80;;;;;;;7.13;100.00;99250.78;5072043;28;20052;-71
2024/03/03 00:30:44;;;;;;;19.48;13.30;;;;;;;7.25;100.00;99250.94;5082628;28;20052;-71
2024/03/03 00:33:12;;;;;;;17.33;12.88;;;;;;;7.42;100.00;99250.88;5085796;28;20056;-70
2024/03/03 00:35:39;;;;;;;17.65;12.38;;;;;;;7.02;100.00;99252.28;5067709;28;20048;-70
2024/03/03 00:38:07;;;;;;;17.77;13.57;;;;;;;7.19;100.00;99256.91;5068178;28;20057;-70
2024/03/03 00:40:34;;;;;;;16.13;12.25;;;;;;;6.58;100.00;99252.66;5061733;28;20622;-71
2024/03/03 00:43:04;;;;;;;19.70;12.75;;;;;;;6.75;100.00;99247.16;5056418;28;20064;-70
2024/03/03 00:45:32;;;;;;;15.85;12.25;;;;;;;6.99;100.00;99261.13;5040226;28;20448;-71
2024/03/03 00:48:00;;;;;;;16.58;11.48;;;;;;;7.44;100.00;99253.28;5046220;28;20049;-71
2024/03/03 00:50:27;;;;;;;20.67;12.02;;;;;;;7.34;100.00;99248.19;5066060;28;20060;-70
2024/03/03 00:52:55;;;;;;;14.95;11.65;;;;;;;7.20;100.00;99258.53;5045069;28;20057;-71
2024/03/03 00:55:23;;;;;;;15.55;10.52;;;;;;;7.46;100.00;99256.50;5060852;28;20053;-70
2024/03/03 00:57:51;;;;;;;16.75;10.80;;;;;;;7.25;100.00;99250.13;5068385;28;20079;-70
2024/03/03 01:00:19;;;;;;;14.80;10.73;;;;;;;7.44;100.00;99245.88;5066236;28;20411;-69
2024/03/03 01:02:46;;;;;;;15.75;10.38;;;;;;;7.23;100.00;99253.19;5050258;28;20063;-69
2024/03/03 01:05:15;;;;;;;15.95;10.10;;;;;;;7.29;100.00;99240.94;5065893;28;20685;-70
2024/03/03 01:07:42;;;;;;;14.23;10.25;;;;;;;7.45;100.00;99244.72;5066605;28;20411;-70
2024/03/03 01:10:09;;;;;;;13.60;9.73;;;;;;;7.35;100.00;99233.34;5067947;28;20475;-69
2024/03/03 01:12:37;;;;;;;13.90;9.18;;;;;;;7.10;100.00;99228.75;5066728;28;20056;-70
2024/03/03 01:15:05;;;;;;;13.05;8.82;;;;;;;7.12;100.00;99232.78;5066505;28;20056;-70
2024/03/03 01:17:32;;;;;;;16.08;9.40;;;;;;;6.99;100.00;99230.25;5049522;28;20060;-69
2024/03/03 01:20:00;;;;;;;14.38;9.05;;;;;;;7.05;100.00;99234.38;5049589;28;20059;-70
2024/03/03 01:22:27;;;;;;;15.20;9.63;;;;;;;7.06;100.00;99236.03;5078465;28;20055;-71
2024/03/03 01:24:55;;;;;;;14.40;9.00;;;;;;;7.37;100.00;99237.38;5046458;28;20056;-69
2024/03/03 01:27:22;;;;;;;13.27;8.98;;;;;;;7.23;100.00;99250.47;5045164;28;20669;-70
2024/03/03 01:29:49;;;;;;;14.15;9.32;;;;;;;7.14;100.00;99260.63;5062287;28;20083;-70
2024/03/03 01:32:16;;;;;;;16.02;8.63;;;;;;;7.26;100.00;99258.03;5063011;28;20060;-69
2024/03/03 01:34:47;;;;;;;14.73;8.90;;;;;;;7.30;100.00;99242.56;5066805;28;20052;-70
2024/03/03 01:37:14;;;;;;;15.93;9.38;;;;;;;7.42;100.00;99244.59;5069697;28;20079;-69
2024/03/03 01:39:42;;;;;;;14.52;9.10;;;;;;;7.26;100.00;99240.78;5062626;28;20059;-70
2024/03/03 01:42:10;;;;;;;15.10;9.18;;;;;;;6.87;100.00;99241.06;5054250;28;20060;-69
2024/03/03 01:44:37;;;;;;;16.75;10.27;;;;;;;7.12;100.00;99240.97;5065749;28;20046;-69
2024/03/03 01:47:04;;;;;;;15.27;9.88;;;;;;;7.26;100.00;99235.28;5066073;28;20198;-69
2024/03/03 01:49:35;;;;;;;17.42;11.13;;;;;;;7.35;100.00;99241.56;5070469;28;20531;-70
2024/03/03 01:52:05;;;;;;;14.73;11.15;;;;;;;7.11;100.00;99244.06;5065713;28;20052;-70
2024/03/03 01:54:34;;;;;;;16.92;11.48;;;;;;;6.97;100.00;99248.91;5045721;28;20067;-71
2024/03/03 01:57:09;;;;;;;15.68;10.90;;;;;;;7.22;100.00;99251.56;5029273;28;20060;-69
2024/03/03 01:59:37;;;;;;;17.95;12.15;;;;;;;7.17;100.00;99240.81;5029266;28;20049;-69
2024/03/03 02:02:05;;;;;;;17.80;12.27;;;;;;;7.45;100.00;99246.66;5045329;28;20045;-69
2024/03/03 02:04:34;;;;;;;17.40;12.43;;;;;;;7.24;100.00;99245.78;5045382;28;20049;-70
2024/03/03 02:07:01;;;;;;;16.50;11.70;;;;;;;7.29;100.00;99245.59;5045719;28;20254;-68
2024/03/03 02:09:29;;;;;;;18.70;12.77;;;;;;;7.28;100.00;99249.47;5061813;28;20056;-69
2024/03/03 02:11:56;;;;;;;16.65;13.18;;;;;;;7.47;100.00;99249.88;5049943;28;20127;-70
2024/03/03 02:14:25;;;;;;;18.98;13.15;;;;;;;7.37;100.00;99251.06;5053087;28;20052;-70
2024/03/03 02:16:52;;;;;;;18.75;13.32;;;;;;;7.31;100.00;99249.63;5068684;28;20684;-70
2024/03/03 02:19:20;;;;;;;17.38;13.40;;;;;;;7.27;100.00;99250.63;5068637;28;20075;-70
2024/03/03 02:21:47;;;;;;;17.45;13.45;;;;;;;7.29;100.00;99256.53;5068988;28;20079;-70
2024/03/03 02:24:15;;;;;;;20.15;13.15;;;;;;;7.36;100.00;99249.44;5052234;28;20052;-72
2024/03/03 02:26:43;;;;;;;16.88;12.88;;;;;;;7.34;100.00;99245.44;5070420;28;20056;-69
2024/03/03 02:29:11;;;;;;;18.90;13.32;;;;;;;7.43;100.00;99244.25;5068115;28;20614;-69
2024/03/03 02:31:39;;;;;;;15.85;12.57;;;;;;;7.13;100.00;99250.78;5059393;28;20590;-69
2024/03/03 02:34:06;;;;;;;16.83;11.40;;;;;;;7.10;100.00;99251.44;5046220;28;20056;-69
2024/03/03 02:36:33;;;;;;;16.10;12.35;;;;;;;7.02;100.00;99240.53;5059823;28;20448;-70
2024/03/03 02:39:01;;;;;;;16.85;11.88;;;;;;;7.29;100.00;99251.06;5050179;28;20057;-69
2024/03/03 02:41:28;;;;;;;15.95;11.38;;;;;;;7.20;100.00;99258.53;5049055;28;20055;-72
2024/03/03 02:43:55;;;;;;;15.90;11.35;;;;;;;7.22;100.00;99254.31;5049156;28;20825;-69
2024/03/03 02:46:23;;;;;;;15.35;10.68;;;;;;;7.21;100.00;99251.91;5067552;28;20597;-68
2024/03/03 02:48:50;;;;;;;16.08;10.20;;;;;;;7.24;100.00;99259.47;5051135;28;20044;-69
2024/03/03 02:51:18;;;;;;;16.40;10.48;;;;;;;7.23;100.00;99258.69;5070222;28;20060;-71
2024/03/03 02:53:45;;;;;;;14.60;10.18;;;;;;;7.31;100.00;99263.31;5069390;28;20044;-69
2024/03/03 02:56:13;;;;;;;14.65;9.38;;;;;;;7.33;100.00;99269.28;5034983;28;20045;-69
2024/03/03 02:58:40;;;;;;;16.33;9.65;;;;;;;7.49;100.00;99272.28;5070611;28;20049;-69
2024/03/03 03:01:07;;;;;;;14.68;9.77;;;;;;;7.35;100.00;99274.41;5069366;28;20060;-70
2024/03/03 03:03:35;;;;;;;13.52;9.88;;;;;;;7.44;100.00;99277.94;5052266;28;20052;-70
2024/03/03 03:06:07;;;;;;;16.05;10.52;;;;;;;7.39;100.00;99272.66;5068719;28;20052;-70
2024/03/03 03:08:34;;;;;;;15.10;10.48;;;;;;;7.47;100.00;99267.13;5068883;28;20044;-69
2024/03/03 03:11:02;;;;;;;14.27;10.05;;;;;;;7.53;100.00;99267.75;5053013;28;20732;-70
2024/03/03 03:13:30;;;;;;;12.77;8.93;;;;;;;7.72;100.00;99266.19;5051382;28;20052;-69
2024/03/03 03:15:58;;;;;;;14.52;8.88;;;;;;;7.89;100.00;99270.81;5034838;28;20108;-69
2024/03/03 03:18:25;;;;;;;12.68;8.35;;;;;;;7.46;100.00;99268.25;5068304;28;20739;-69
2024/03/03 03:20:52;;;;;;;12.77;9.13;;;;;;;7.37;100.00;99269.41;5068039;28;20060;-69
2024/03/03 03:23:20;;;;;;;12.50;8.25;;;;;;;7.36;100.00;99268.59;5033975;28;20065;-69
2024/03/03 03:25:47;;;;;;;12.38;7.22;;;;;;;7.71;100.00;99264.59;5059482;28;20052;-69
2024/03/03 03:28:16;;;;;;;10.05;6.55;;;;;;;7.44;100.00;99258.75;5050782;28;20421;-70
2024/03/03 03:30:43;;;;;;;11.32;6.90;;;;;;;7.33;100.00;99261.06;5067714;28;20057;-69
2024/03/03 03:33:11;;;;;;;11.75;7.07;;;;;;;7.62;100.00;99266.56;5069211;28;20456;-69
2024/03/03 03:35:38;;;;;;;15.75;7.05;;;;;;;7.65;100.00;99263.16;5067693;28;20061;-69
2024/03/03 03:38:05;;;;;;;8.93;5.13;;;;;;;7.55;100.00;99262.75;5050781;28;20061;-70
2024/03/03 03:40:33;;;;;;;9.02;5.60;;;;;;;7.69;100.00;99263.31;5067318;28;20048;-69
2024/03/03 03:43:04;;;;;;;8.20;5.25;;;;;;;7.71;100.00;99255.56;5051227;28;20044;-69
2024/03/03 03:45:32;;;;;;;8.68;5.43;;;;;;;7.77;100.00;99251.53;5064403;28;20052;-70
2024/03/03 03:47:59;;;;;;;9.93;5.38;;;;;;;7.61;100.00;99261.44;5047643;28;20049;-70
2024/03/03 03:50:27;;;;;;;10.55;5.30;;;;;;;7.56;100.00;99267.09;5082338;28;20060;-70
2024/03/03 03:52:55;;;;;;;11.75;5.60;;;;;;;7.67;100.00;99260.13;5065387;28;20049;-71
2024/03/03 03:55:22;;;;;;;11.60;5.60;;;;;;;7.94;100.00;99259.66;5051209;28;20056;-69
2024/03/03 03:57:49;;;;;;;8.27;5.00;;;;;;;7.76;100.00;99260.84;5060687;28;20753;-69
2024/03/03 04:00:17;;;;;;;8.30;4.60;;;;;;;7.72;100.00;99263.47;5069696;28;20052;-69
2024/03/03 04:02:44;;;;;;;10.80;5.53;;;;;;;7.79;100.00;99269.22;5067991;28;20083;-68
2024/03/03 04:05:12;;;;;;;7.90;4.78;;;;;;;8.00;100.00;99272.03;5068657;28;20059;-69
2024/03/03 04:07:39;;;;;;;11.25;5.05;;;;;;;7.84;100.00;99273.75;5067287;28;20056;-69
2024/03/03 04:10:07;;;;;;;9.48;5.00;;;;;;;7.71;100.00;99270.09;5050478;28;20044;-69
2024/03/03 04:12:35;;;;;;;10.75;5.13;;;;;;;7.60;100.00;99270.78;5066371;28;20064;-69
2024/03/03 04:15:02;;;;;;;9.23;5.10;;;;;;;7.70;100.00;99271.22;5068581;28;20045;-70
2024/03/03 04:17:30;;;;;;;9.15;5.13;;;;;;;7.53;100.00;99268.53;5067003;28;20055;-70
2024/03/03 04:19:58;;;;;;;10.02;5.43;;;;;;;7.58;100.00;99270.31;5067995;28;20048;-68
2024/03/03 04:22:25;;;;;;;9.52;5.03;;;;;;;7.65;100.00;99270.59;5068112;28;20056;-70
2024/03/03 04:24:52;;;;;;;9.27;4.93;;;;;;;7.66;100.00;99269.47;5067557;28;20530;-70
2024/03/03 04:27:20;;;;;;;11.10;5.40;;;;;;;7.58;100.00;99282.06;5065195;28;20060;-69
2024/03/03 04:29:48;;;;;;;10.52;5.88;;;;;;;7.60;100.00;99287.22;5066461;28;20526;-70
2024/03/03 04:32:15;;;;;;;11.30;5.97;;;;;;;7.73;100.00;99288.94;5049719;28;20059;-70
2024/03/03 04:34:43;;;;;;;10.73;6.40;;;;;;;7.71;100.00;99300.22;5049968;28;20063;-70
2024/03/03 04:37:12;;;;;;;12.32;6.32;;;;;;;7.71;100.00;99300.22;5066663;28;20071;-70
2024/03/03 04:39:40;;;;;;;11.45;5.93;;;;;;;7.74;100.00;99307.00;5065092;28;20063;-71
2024/03/03 04:42:08;;;;;;;11.07;6.15;;;;;;;7.87;100.00;99305.97;5045419;28;20060;-69
2024/03/03 04:44:35;;;;;;;10.88;6.55;;;;;;;7.67;100.00;99312.19;5046237;28;20072;-69
2024/03/03 04:47:03;;;;;;;11.40;6.45;;;;;;;7.66;100.00;99322.34;5046325;28;20057;-69
2024/03/03 04:49:31;;;;;;;12.80;6.60;;;;;;;7.50;100.00;99315.78;5056091;28;20063;-70
2024/03/03 04:51:58;;;;;;;10.32;6.50;;;;;;;7.89;100.00;99317.41;5046429;28;20056;-69
2024/03/03 04:54:26;;;;;;;14.23;6.70;;;;;;;7.70;100.00;99312.34;5067051;28;20056;-71
2024/03/03 04:56:53;;;;;;;11.20;6.68;;;;;;;7.86;100.00;99315.34;5068490;28;20048;-70
2024/03/03 04:59:20;;;;;;;13.77;7.13;;;;;;;7.00;100.00;99325.72;5068319;28;20063;-70
2024/03/03 05:01:48;;;;;;;14.40;7.68;;;;;;;7.00;100.00;99330.38;5067829;28;20056;-70
2024/03/03 05:04:16;;;;;;;15.93;7.97;;;;;;;7.22;100.00;99324.72;5048904;28;20060;-70
2024/03/03 05:06:44;;;;;;;13.93;7.70;;;;;;;7.36;100.00;99328.88;5065733;28;20063;-70
2024/03/03 05:09:12;;;;;;;14.50;8.20;;;;;;;7.18;100.00;99334.72;5067055;28;20056;-70
2024/03/03 05:11:40;;;;;;;15.60;8.85;;;;;;;7.02;100.00;99339.06;5066144;28;20048;-69
2024/03/03 05:14:09;;;;;;;13.57;8.95;;;;;;;7.21;100.00;99328.56;5065318;28;20068;-69
2024/03/03 05:16:36;;;;;;;18.33;9.35;;;;;;;6.96;100.00;99341.16;5065781;28;20115;-70
2024/03/03 05:19:04;;;;;;;16.85;9.25;;;;;;;6.76;100.00;99339.88;5067517;28;20044;-69
2024/03/03 05:21:32;;;;;;;17.88;10.57;;;;;;;6.59;100.00;99342.59;5067202;28;20745;-69
2024/03/03 05:24:01;;;;;;;19.45;10.27;;;;;;;7.02;100.00;99342.63;5031813;28;20242;-69
2024/03/03 05:26:28;;;;;;;18.20;10.65;;;;;;;6.79;100.00;99342.00;5047259;28;20044;-70
2024/03/03 05:28:55;;;;;;;16.20;10.50;;;;;;;6.85;100.00;99343.41;5066136;28;20075;-70
2024/03/03 05:31:23;;;;;;;16.98;10.07;;;;;;;7.17;100.00;99344.03;5045257;28;20704;-69
2024/03/03 05:33:50;;;;;;;16.20;10.60;;;;;;;7.21;100.00;99339.53;5064688;28;20056;-70
2024/03/03 05:36:17;;;;;;;18.27;10.27;;;;;;;7.02;100.00;99339.06;5065977;28;20052;-71
2024/03/03 05:38:45;;;;;;;19.92;11.27;;;;;;;7.15;100.00;99336.16;5065464;28;20052;-70
2024/03/03 05:41:12;;;;;;;20.88;11.05;;;;;;;7.04;100.00;99361.47;5049169;28;20063;-68
2024/03/03 05:43:39;;;;;;;18.25;11.10;;;;;;;7.07;100.00;99355.34;5065999;28;20048;-70
2024/03/03 05:46:07;;;;;;;18.17;11.07;;;;;;;7.02;100.00;99361.78;5067300;28;20091;-70
2024/03/03 05:48:34;;;;;;;23.45;12.13;;;;;;;6.98;100.00;99354.53;5072118;28;20052;-70
2024/03/03 05:51:02;;;;;;;21.15;12.05;;;;;;;6.79;100.00;99374.81;5070048;28;20912;-70
2024/03/03 05:53:29;;;;;;;19.05;12.07;;;;;;;7.05;100.00;99371.28;5067305;28;20061;-70
2024/03/03 05:55:56;;;;;;;16.58;12.00;;;;;;;7.09;100.00;99369.50;5068370;28;20135;-69
2024/03/03 05:58:24;;;;;;;17.85;11.93;;;;;;;6.41;100.00;99365.59;5071216;28;20059;-69
2024/03/03 06:00:51;;;;;;;19.60;12.48;;;;;;;6.45;100.00;99363.03;5068468;28;20045;-70
2024/03/03 06:03:19;;;;;;;20.00;12.35;;;;;;;6.68;100.00;99368.03;5067293;28;20057;-71
2024/03/03 06:05:46;;;;;;;22.65;13.07;;;;;;;6.57;100.00;99365.97;5070575;28;20547;-70
2024/03/03 06:08:16;;;;;;;20.38;12.98;;;;;;;6.68;100.00;99365.31;5053020;28;20056;-71
2024/03/03 06:10:43;;;;;;;18.40;12.95;;;;;;;6.74;100.00;99361.31;5070738;28;20056;-71
2024/03/03 06:13:11;;;;;;;18.48;13.05;;;;;;;6.63;100.00;99370.94;5070621;28;20571;-70
2024/03/03 06:15:38;;;;;;;20.48;13.38;;;;;;;6.43;100.00;99363.34;5071376;28;20052;-70
2024/03/03 06:18:06;;;;;;;22.88;14.52;;;;;;;6.52;100.00;99369.63;5070621;28;20056;-71
2024/03/03 06:20:33;;;;;;;21.15;13.68;;;;;;;6.61;100.00;99372.38;5048982;28;20045;-70
2024/03/03 06:23:01;;;;;;;20.48;14.68;;;;;;;6.56;100.00;99375.28;5032607;28;20063;-70
2024/03/03 06:25:28;;;;;;;21.55;14.30;;;;;;;6.72;100.00;99373.69;5048928;28;20079;-69
2024/03/03 06:27:56;;;;;;;18.77;14.20;;;;;;;6.44;100.00;99370.44;5051974;28;20056;-69
2024/03/03 06:30:23;;;;;;;20.08;14.32;;;;;;;6.71;100.00;99383.03;5061679;28;20045;-70
2024/03/03 06:32:50;;;;;;;21.98;13.57;;;;;;;6.65;100.00;99385.13;5069685;28;20053;-70
2024/03/03 06:35:18;;;;;;;21.73;14.52;;;;;;;6.40;100.00;99396.78;5070520;28;20055;-70
2024/03/03 06:37:50;;;;;;;25.23;14.43;;;;;;;6.46;100.00;99395.53;5036293;28;20060;-69
2024/03/03 06:40:18;;;;;;;20.90;13.60;;;;;;;6.84;100.00;99410.25;5069522;28;20086;-69
2024/03/03 06:42:45;;;;;;;22.23;14.23;;;;;;;6.76;100.00;99412.97;5051777;28;20065;-69
2024/03/03 06:45:13;;;;;;;20.60;14.43;;;;;;;6.86;100.00;99415.41;5069053;28;20048;-69
2024/03/03 06:47:40;;;;;;;22.08;14.45;;;;;;;6.56;100.00;99424.50;5069246;28;20072;-69
2024/03/03 06:50:08;;;;;;;19.90;14.95;;;;;;;6.27;100.00;99425.09;5067481;28;20049;-70
2024/03/03 06:52:36;;;;;;;21.90;14.93;;;;;;;6.47;100.00;99432.69;5066029;28;20056;-70
2024/03/03 06:55:04;;;;;;;23.65;16.05;;;;;;;6.66;100.00;99438.69;5067715;28;20048;-71
2024/03/03 06:57:31;;;;;;;22.10;15.25;;;;;;;6.69;100.00;99442.75;5067033;28;20061;-71
2024/03/03 06:59:59;;;;;;;22.48;16.02;;;;;;;6.89;100.00;99449.53;5059592;28;20045;-72
2024/03/03 07:02:56;;;;;;;19.63;14.82;;;;;;;6.84;100.00;99459.50;5064615;28;20052;-71
2024/03/03 07:05:13;;;;;;;21.95;15.00;;;;;;;6.57;100.00;99453.50;5069338;28;20052;-70
2024/03/03 07:07:41;;;;;;;22.33;15.02;;;;;;;6.68;100.00;99457.53;5067809;28;20048;-71
2024/03/03 07:10:09;;;;;;;20.88;14.80;;;;;;;6.88;100.00;99464.34;5069488;28;20044;-70
2024/03/03 07:12:37;;;;;;;21.35;14.98;;;;;;;6.88;100.00;99465.16;5047899;28;20366;-69
2024/03/03 07:15:04;;;;;;;23.17;13.95;;;;;;;6.78;100.00;99479.13;5066932;28;20068;-68
2024/03/03 07:17:32;;;;;;;21.08;14.98;;;;;;;6.94;100.00;99474.81;5063953;28;20068;-67
2024/03/03 07:20:03;;;;;;;22.63;15.13;;;;;;;6.94;100.00;99485.75;5068248;28;20044;-66
2024/03/03 07:22:34;;;;;;;19.27;14.18;;;;;;;6.95;100.00;99481.09;5071046;28;20060;-66
2024/03/03 07:25:02;;;;;;;21.17;14.35;;;;;;;6.83;100.00;99479.78;5066292;28;20482;-68
2024/03/03 07:27:30;;;;;;;22.10;14.73;;;;;;;6.63;100.00;99477.63;5066633;28;20751;-68
2024/03/03 07:29:58;;;;;;;20.83;14.85;;;;;;;6.65;100.00;99472.66;5064843;28;20376;-67
2024/03/03 07:32:29;;;;;;;22.17;15.07;;;;;;;6.93;100.00;99478.69;5068326;28;20047;-68
2024/03/03 07:34:56;;;;;;;22.10;14.15;;;;;;;7.25;100.00;99480.97;5067593;28;20663;-66
2024/03/03 07:37:24;;;;;;;22.42;15.13;;;;;;;6.87;100.00;99487.38;5068396;28;20045;-67
2024/03/03 07:39:51;;;;;;;20.85;14.35;;;;;;;6.81;100.00;99489.44;5068268;28;20048;-66
2024/03/03 07:42:19;;;;;;;21.60;14.88;;;;;;;6.84;100.00;99488.78;5067074;28;20803;-68
2024/03/03 07:44:46;;;;;;;23.23;14.70;;;;;;;6.78;100.00;99504.56;5066957;28;20060;-69
2024/03/03 07:47:13;;;;;;;21.20;14.82;;;;;;;6.59;100.00;99509.47;5050640;28;20060;-66
2024/03/03 07:49:42;;;;;;;23.58;14.80;;;;;;;6.45;100.00;99508.78;5066133;28;20040;-69
2024/03/03 07:52:10;;;;;;;25.03;15.23;;;;;;;6.67;100.00;99513.38;5067522;28;20139;-69
2024/03/03 07:54:37;;;;;;;22.80;15.35;;;;;;;6.62;100.00;99508.88;5066698;28;20562;-69
2024/03/03 07:57:05;;;;;;;26.35;15.60;;;;;;;6.72;100.00;99510.50;5033240;28;20068;-69
2024/03/03 07:59:32;;;;;;;24.83;14.95;;;;;;;7.03;100.00;99505.75;5049512;28;20056;-70
2024/03/03 08:01:59;;;;;;;26.13;15.32;;;;;;;6.78;100.00;99510.03;5067694;28;20535;-69
2024/03/03 08:04:28;;;;;;;23.77;14.43;;;;;;;7.05;100.00;99510.88;5065071;28;20415;-70
2024/03/03 08:06:55;;;;;;;20.42;13.38;;;;;;;6.77;100.00;99513.91;5050905;28;20078;-71
2024/03/03 08:09:23;;;;;;;21.95;13.65;;;;;;;6.29;100.00;99504.88;5050350;28;20056;-71
2024/03/03 08:11:51;;;;;;;19.73;12.70;;;;;;;6.29;100.00;99510.34;5061486;28;20052;-71
2024/03/03 08:14:18;;;;;;;26.38;14.82;;;;;;;6.61;100.00;99509.97;5070070;28;20502;-72
2024/03/03 08:16:46;;;;;;;21.90;13.32;;;;;;;6.69;100.00;99513.88;5088061;28;20052;-70
2024/03/03 08:19:13;;;;;;;21.80;13.35;;;;;;;6.32;100.00;99508.88;5074170;28;20059;-71
2024/03/03 08:21:43;;;;;;;24.38;13.75;;;;;;;6.48;100.00;99504.63;5068424;28;20060;-70
2024/03/03 08:24:10;;;;;;;28.23;13.20;;;;;;;6.66;100.00;99509.00;5068252;28;20056;-71
2024/03/03 08:26:38;;;;;;;20.20;12.55;;;;;;;7.07;100.00;99511.38;5067215;28;20071;-71
2024/03/03 08:29:07;;;;;;;20.70;11.75;;;;;;;6.95;100.00;99500.25;5065347;28;20571;-69
2024/03/03 08:31:35;;;;;;;20.43;12.07;;;;;;;6.87;100.00;99517.47;5067372;28;20044;-69
2024/03/03 08:34:03;;;;;;;23.88;13.10;;;;;;;6.84;100.00;99502.47;5066636;28;20526;-69
2024/03/03 08:36:30;;;;;;;19.20;12.00;;;;;;;6.89;100.00;99510.53;5068465;28;20056;-67
2024/03/03 08:38:58;;;;;;;20.40;11.75;;;;;;;6.89;100.00;99515.22;5066920;28;20055;-67
2024/03/03 08:41:25;;;;;;;19.33;11.35;;;;;;;6.70;100.00;99521.75;5065197;28;20059;-69
2024/03/03 08:43:53;;;;;;;19.27;11.40;;;;;;;6.84;100.00;99519.72;5046324;28;20519;-70
2024/03/03 08:46:20;;;;;;;21.63;11.93;;;;;;;6.73;100.00;99523.03;5065865;28;20049;-68
2024/03/03 08:48:48;;;;;;;17.50;11.27;;;;;;;6.83;100.00;99522.78;5062355;28;20048;-69
2024/03/03 08:51:15;;;;;;;23.55;11.90;;;;;;;6.65;100.00;99537.50;5067341;28;20051;-67
2024/03/03 08:53:42;;;;;;;21.58;12.70;;;;;;;6.38;100.00;99537.72;5065116;28;20103;-69
2024/03/03 08:56:10;;;;;;;17.25;12.02;;;;;;;6.28;100.00;99533.31;5067479;28;20056;-72
2024/03/03 08:58:37;;;;;;;20.88;11.75;;;;;;;6.54;100.00;99539.72;5064882;28;20056;-70
2024/03/03 09:01:05;;;;;;;17.17;11.10;;;;;;;6.58;100.00;99537.97;5065916;28;20067;-71
2024/03/03 09:03:34;;;;;;;20.00;11.85;;;;;;;7.02;100.00;99536.19;5066856;28;20052;-71
2024/03/03 09:06:02;;;;;;;23.45;11.68;;;;;;;6.85;100.00;99542.44;5050908;28;20874;-70
2024/03/03 09:08:29;;;;;;;17.77;11.18;;;;;;;7.01;100.00;99542.78;5063394;28;20432;-69
2024/03/03 09:11:01;;;;;;;19.15;9.88;;;;;;;6.95;100.00;99553.06;5066169;28;20044;-70
2024/03/03 09:13:28;;;;;;;17.17;9.70;;;;;;;6.75;100.00;99564.59;5067499;28;20412;-70
2024/03/03 09:15:56;;;;;;;16.13;10.15;;;;;;;6.71;100.00;99564.41;5066335;28;20060;-71
2024/03/03 09:18:23;;;;;;;18.90;9.77;;;;;;;6.75;100.00;99562.66;5066572;28;20625;-70
2024/03/03 09:20:50;;;;;;;18.52;10.23;;;;;;;7.02;100.00;99575.31;5063343;28;20049;-70
2024/03/03 09:23:18;;;;;;;19.77;9.95;;;;;;;6.97;100.00;99574.66;5066445;28;20055;-69
2024/03/03 09:25:45;;;;;;;16.42;9.18;;;;;;;6.85;100.00;99576.06;5065699;28;20052;-71
2024/03/03 09:28:13;;;;;;;13.75;9.27;;;;;;;7.07;100.00;99585.31;5055612;28;20733;-69
2024/03/03 09:30:41;;;;;;;16.27;9.07;;;;;;;7.34;100.00;99582.31;5061361;28;20044;-67
2024/03/03 09:33:08;;;;;;;15.95;8.77;;;;;;;7.04;100.00;99588.69;5058015;28;20049;-67
2024/03/03 09:35:38;;;;;;;;;;;;;;;7.07;100.00;99605.28;5064780;28;20044;-69
2024/03/03 09:38:05;;;;;;;13.70;7.47;;;;;;;7.31;100.00;99600.19;5052565;28;20375;-69
2024/03/03 09:40:35;;;;;;;16.48;8.80;;;;;;;6.87;100.00;99622.25;5046669;28;20044;-69
2024/03/03 09:43:04;;;;;;;13.82;7.65;;;;;;;7.26;100.00;99615.97;5057950;28;20053;-69
2024/03/03 09:45:32;;;;;;;15.88;9.18;;;;;;;7.15;100.00;99618.19;5065962;28;20048;-70
2024/03/03 09:48:01;;;;;;;17.90;7.93;;;;;;;7.42;100.00;99626.16;5053945;28;20170;-66
2024/03/03 09:50:29;;;;;;;14.43;7.75;;;;;;;7.65;100.00;99621.38;5065229;28;20288;-65
2024/03/03 09:52:57;;;;;;;17.33;7.63;;;;;;;7.52;99.92;99630.53;5059685;28;20281;-70
2024/03/03 09:55:24;;;;;;;13.98;6.93;;;;;;;7.46;99.09;99623.59;5035937;28;20064;-68
2024/03/03 09:57:53;;;;;;;14.15;6.65;;;;;;;7.35;99.71;99633.22;5072933;28;20385;-67
2024/03/03 10:00:22;;;;;;;11.55;6.63;;;;;;;7.63;100.00;99640.06;5065633;28;20052;-68
2024/03/03 10:02:49;;;;;;;12.32;6.88;;;;;;;7.75;98.76;99643.81;5068403;28;20048;-70
2024/03/03 10:05:18;;;;;;;12.30;6.28;;;;;;;7.84;98.00;99654.78;5067076;28;20052;-70
2024/03/03 10:07:47;;;;;;;15.07;6.45;;;;;;;7.57;97.97;99649.56;5067380;28;20057;-68
2024/03/03 10:10:19;;;;;;;13.38;6.43;;;;;;;7.76;97.52;99647.31;5061197;28;20057;-71
2024/03/03 10:12:48;;;;;;;12.73;6.10;;;;;;;8.24;96.60;99648.03;5065910;28;20049;-69
2024/03/03 10:15:17;;;;;;;16.73;5.90;;;;;;;7.72;94.72;99654.59;5051568;28;20591;-70
2024/03/03 10:17:45;;;;;;;15.68;5.85;;;;;;;7.71;95.23;99656.53;5047267;28;20064;-66
2024/03/03 10:20:12;;;;;;;12.93;5.68;;;;;;;7.84;95.70;99658.31;5054601;28;20530;-67
2024/03/03 10:22:40;;;;;;;14.15;5.47;;;;;;;7.99;95.22;99660.59;5070042;28;20044;-65
2024/03/03 10:25:18;;;;;;;12.77;5.78;;;;;;;8.09;95.07;99667.66;5050991;28;20052;-66
2024/03/03 10:27:47;;;;;;;13.65;5.90;;;;;;;7.62;96.80;99677.63;5057965;28;20036;-67
2024/03/03 10:30:17;;;;;;;10.20;5.73;;;;;;;7.63;95.39;99681.16;5073615;28;20055;-66
2024/03/03 10:32:47;;;;;;;11.15;6.40;;;;;;;7.70;97.49;99679.59;5071862;28;20492;-69
2024/03/03 10:35:16;;;;;;;15.07;5.90;;;;;;;7.78;95.83;99676.03;5043757;28;20056;-68
2024/03/03 10:37:52;;;;;;;10.23;6.03;;;;;;;7.66;96.61;99675.03;5063698;28;20056;-69
2024/03/03 10:40:21;;;;;;;13.25;6.53;;;;;;;7.75;96.96;99681.34;5058813;28;20059;-69
2024/03/03 10:42:49;;;;;;;12.30;6.30;;;;;;;7.91;96.23;99679.78;5066672;28;20537;-69
2024/03/03 10:45:17;;;;;;;13.63;6.65;;;;;;;8.12;94.72;99683.50;5066203;28;20059;-70
2024/03/03 10:47:45;;;;;;;15.38;7.13;;;;;;;8.21;94.17;99681.53;5069199;28;20052;-69
2024/03/03 10:50:16;;;;;;;19.05;6.53;;;;;;;8.50;93.84;99687.22;5050421;28;20055;-70
2024/03/03 10:52:43;;;;;;;11.63;6.68;;;;;;;8.42;92.28;99685.28;5061202;28;20053;-69
2024/03/03 10:55:13;;;;;;;17.45;6.53;;;;;;;8.20;93.70;99698.31;5052208;28;20053;-69
2024/03/03 10:57:43;;;;;;;11.25;6.32;;;;;;;8.42;93.69;99699.00;5056875;28;20055;-70
2024/03/03 11:00:22;;;;;;;17.08;6.85;;;;;;;8.39;91.78;99701.59;5058312;28;20049;-70
2024/03/03 11:02:54;;;;;;;16.58;7.18;;;;;;;8.27;91.78;99709.66;5068037;28;20055;-69
2024/03/03 11:05:23;;;;;;;16.23;8.48;;;;;;;8.17;93.28;99708.03;5057905;28;20055;-71
2024/03/03 11:07:57;;;;;;;14.38;7.03;;;;;;;8.08;94.83;99707.19;5068731;28;20048;-68
2024/03/03 11:10:25;;;;;;;13.90;7.43;;;;;;;8.39;93.42;99699.66;5076281;28;20063;-69
2024/03/03 11:12:54;;;;;;;11.85;6.50;;;;;;;8.28;92.77;99703.06;5030508;28;20063;-70
2024/03/03 11:15:21;;;;;;;13.10;7.35;;;;;;;8.31;92.57;99703.22;5059158;28;20045;-70
2024/03/03 11:17:57;;;;;;;15.30;7.10;;;;;;;8.06;93.67;99701.22;5063486;28;20056;-70
2024/03/03 11:20:33;;;;;;;13.73;7.22;;;;;;;7.89;94.58;99704.78;5052942;28;20453;-71
2024/03/03 11:23:16;;;;;;;14.85;6.82;;;;;;;8.33;94.09;99700.97;5042964;28;20053;-71
2024/03/03 11:26:15;;;;;;;14.10;7.15;;;;;;;8.40;92.04;99704.03;5058481;28;20514;-70